createdAt,value
2018-08-17T00:02:07.152Z,15.13
2018-08-17T00:04:35.720Z,15.60
2018-08-17T00:07:04.553Z,16.03
2018-08-17T00:09:32.974Z,16.00
2018-08-17T00:12:01.399Z,14.63
2018-08-17T00:14:29.821Z,15.50
2018-08-17T00:16:58.247Z,17.17
2018-08-17T00:19:26.659Z,16.73
2018-08-17T00:21:55.140Z,15.93
2018-08-17T00:24:23.717Z,16.00
2018-08-17T00:26:52.204Z,17.47
2018-08-17T00:29:20.635Z,16.30
2018-08-17T00:31:49.085Z,16.00
2018-08-17T00:34:17.484Z,16.00
2018-08-17T00:36:45.912Z,15.67
2018-08-17T00:39:14.300Z,16.10
2018-08-17T00:41:42.701Z,15.97
2018-08-17T00:44:11.361Z,15.83
2018-08-17T00:46:39.877Z,16.33
2018-08-17T00:49:08.340Z,16.27
2018-08-17T00:51:36.756Z,14.47
2018-08-17T00:54:06.154Z,16.83
2018-08-17T00:56:34.619Z,16.50
2018-08-17T00:59:03.077Z,16.77
2018-08-17T01:01:31.579Z,16.57
2018-08-17T01:04:00.004Z,14.90
2018-08-17T01:06:28.519Z,15.50
2018-08-17T01:08:56.959Z,16.90
2018-08-17T01:11:26.196Z,15.80
2018-08-17T01:13:54.676Z,16.00
2018-08-17T01:16:23.092Z,15.70
2018-08-17T01:18:52.342Z,16.90
2018-08-17T01:21:20.791Z,15.93
2018-08-17T01:23:49.189Z,16.60
2018-08-17T01:26:17.725Z,15.57
2018-08-17T01:28:46.093Z,15.80
2018-08-17T01:31:14.486Z,16.40
2018-08-17T01:33:42.958Z,15.77
2018-08-17T01:36:11.339Z,14.90
2018-08-17T01:38:39.828Z,15.83
2018-08-17T01:41:09.016Z,16.50
2018-08-17T01:43:37.492Z,15.67
2018-08-17T01:46:05.992Z,17.10
2018-08-17T01:48:34.392Z,17.07
2018-08-17T01:51:02.820Z,17.43
2018-08-17T01:53:32.230Z,18.07
2018-08-17T01:56:00.692Z,17.60
2018-08-17T01:58:29.109Z,16.50
2018-08-17T02:00:57.554Z,18.73
2018-08-17T02:03:26.030Z,17.80
2018-08-17T02:05:54.512Z,17.43
2018-08-17T02:08:22.985Z,17.37
2018-08-17T02:10:51.469Z,17.97
2018-08-17T02:13:19.875Z,18.00
2018-08-17T02:15:48.348Z,17.57
2018-08-17T02:18:16.755Z,19.70
2018-08-17T02:20:45.144Z,20.20
2018-08-17T02:23:13.542Z,20.63
2018-08-17T02:25:41.956Z,21.17
2018-08-17T02:28:10.403Z,19.83
2018-08-17T02:30:38.853Z,21.00
2018-08-17T02:33:07.276Z,21.30
2018-08-17T02:35:35.693Z,20.30
2018-08-17T02:38:04.169Z,19.60
2018-08-17T02:40:32.651Z,19.40
2018-08-17T02:43:01.273Z,19.50
2018-08-17T02:45:29.679Z,20.10
2018-08-17T02:47:58.121Z,18.87
2018-08-17T02:50:26.770Z,19.07
2018-08-17T02:52:55.180Z,18.00
2018-08-17T02:55:23.576Z,18.77
2018-08-17T02:57:52.101Z,17.53
2018-08-17T03:00:20.577Z,16.23
2018-08-17T03:02:48.996Z,17.40
2018-08-17T03:05:17.443Z,15.70
2018-08-17T03:07:45.957Z,15.33
2018-08-17T03:10:14.357Z,15.90
2018-08-17T03:12:42.807Z,15.57
2018-08-17T03:15:11.248Z,13.50
2018-08-17T03:17:39.637Z,13.00
2018-08-17T03:20:08.070Z,13.70
2018-08-17T03:22:36.953Z,14.53
2018-08-17T03:25:05.448Z,12.40
2018-08-17T03:27:33.891Z,13.30
2018-08-17T03:30:02.376Z,12.40
2018-08-17T03:32:30.766Z,13.17
2018-08-17T03:34:59.143Z,12.97
2018-08-17T03:37:27.839Z,12.10
2018-08-17T03:39:56.244Z,12.60
2018-08-17T03:42:24.700Z,11.60
2018-08-17T03:44:53.138Z,11.20
2018-08-17T03:47:21.597Z,10.70
2018-08-17T03:49:50.083Z,10.67
2018-08-17T03:52:19.047Z,10.80
2018-08-17T03:54:47.626Z,10.23
2018-08-17T03:57:16.543Z,10.60
2018-08-17T03:59:44.972Z,9.73
2018-08-17T04:02:13.394Z,9.10
2018-08-17T04:04:41.886Z,10.23
2018-08-17T04:07:10.349Z,8.70
2018-08-17T04:09:38.739Z,8.60
2018-08-17T04:12:07.196Z,9.23
2018-08-17T04:14:35.609Z,8.73
2018-08-17T04:17:04.038Z,8.27
2018-08-17T04:19:32.468Z,8.27
2018-08-17T04:22:01.484Z,7.83
2018-08-17T04:24:29.913Z,8.30
2018-08-17T04:26:58.783Z,7.27
2018-08-17T04:29:27.174Z,8.40
2018-08-17T04:31:55.594Z,7.80
2018-08-17T04:34:23.977Z,6.50
2018-08-17T04:36:52.407Z,6.53
2018-08-17T04:39:20.829Z,6.60
2018-08-17T04:41:49.249Z,6.80
2018-08-17T04:44:17.676Z,6.53
2018-08-17T04:46:46.096Z,6.30
2018-08-17T04:49:14.588Z,6.53
2018-08-17T04:51:42.971Z,6.17
2018-08-17T04:54:11.393Z,6.47
2018-08-17T04:56:39.767Z,5.93
2018-08-17T04:59:08.184Z,6.27
2018-08-17T05:01:36.644Z,5.90
2018-08-17T05:04:05.049Z,5.87
2018-08-17T05:06:33.493Z,5.80
2018-08-17T05:09:01.980Z,5.70
2018-08-17T05:11:30.331Z,5.57
2018-08-17T05:13:58.823Z,5.93
2018-08-17T05:16:27.189Z,5.77
2018-08-17T05:18:55.666Z,6.00
2018-08-17T05:21:24.109Z,6.03
2018-08-17T05:23:52.505Z,5.40
2018-08-17T05:26:20.884Z,5.70
2018-08-17T05:28:49.312Z,6.00
2018-08-17T05:31:17.769Z,6.20
2018-08-17T05:33:46.196Z,6.13
2018-08-17T05:36:14.653Z,4.97
2018-08-17T05:38:43.545Z,4.90
2018-08-17T05:41:11.952Z,4.77
2018-08-17T05:43:40.985Z,5.23
2018-08-17T05:46:09.423Z,5.40
2018-08-17T05:48:37.796Z,6.30
2018-08-17T05:51:06.200Z,5.90
2018-08-17T05:53:34.596Z,7.63
2018-08-17T05:56:03.030Z,7.10
2018-08-17T05:58:31.464Z,6.43
2018-08-17T06:00:59.886Z,7.20
2018-08-17T06:03:28.318Z,7.87
2018-08-17T06:05:56.789Z,7.27
2018-08-17T06:08:25.251Z,7.20
2018-08-17T06:10:53.732Z,7.57
2018-08-17T06:13:22.165Z,6.87
2018-08-17T06:15:50.590Z,7.70
2018-08-17T06:18:19.053Z,6.70
2018-08-17T06:20:47.701Z,6.33
2018-08-17T06:23:16.127Z,6.80
2018-08-17T06:25:45.734Z,7.80
2018-08-17T06:28:14.529Z,7.20
2018-08-17T06:30:43.111Z,7.30
2018-08-17T06:33:11.571Z,5.90
2018-08-17T06:35:40.035Z,4.03
2018-08-17T06:38:08.475Z,4.57
2018-08-17T06:40:37.011Z,4.60
2018-08-17T06:43:05.473Z,5.03
2018-08-17T06:45:33.972Z,4.67
2018-08-17T06:48:02.364Z,5.53
2018-08-17T06:50:30.816Z,4.70
2018-08-17T06:52:59.228Z,5.87
2018-08-17T06:55:27.660Z,5.33
2018-08-17T06:57:56.117Z,4.70
2018-08-17T07:00:24.525Z,5.00
2018-08-17T07:02:53.177Z,5.27
2018-08-17T07:05:22.343Z,4.77
2018-08-17T07:07:50.751Z,4.93
2018-08-17T07:10:19.244Z,4.33
2018-08-17T07:12:47.667Z,5.30
2018-08-17T07:15:17.025Z,5.20
2018-08-17T07:17:45.435Z,5.17
2018-08-17T07:20:14.366Z,5.00
2018-08-17T07:22:42.948Z,5.33
2018-08-17T07:25:11.515Z,5.87
2018-08-17T07:27:40.035Z,6.60
2018-08-17T07:30:09.417Z,5.30
2018-08-17T07:32:37.945Z,6.40
2018-08-17T07:35:08.014Z,6.10
2018-08-17T07:37:37.114Z,6.53
2018-08-17T07:40:08.865Z,6.63
2018-08-17T07:42:38.254Z,6.50
2018-08-17T07:45:07.596Z,7.17
2018-08-17T07:47:36.058Z,6.57
2018-08-17T07:50:04.651Z,7.10
2018-08-17T07:52:33.105Z,6.90
2018-08-17T07:55:01.923Z,6.90
2018-08-17T07:57:30.941Z,6.30
2018-08-17T07:59:59.342Z,7.20
2018-08-17T08:02:27.780Z,7.33
2018-08-17T08:04:56.264Z,7.10
2018-08-17T08:07:24.675Z,7.60
2018-08-17T08:09:54.042Z,6.23
2018-08-17T08:12:22.545Z,5.93
2018-08-17T08:14:51.788Z,6.27
2018-08-17T08:17:20.263Z,7.90
2018-08-17T08:20:31.456Z,12.47
2018-08-17T08:23:10.956Z,8.67
2018-08-17T08:25:39.720Z,9.90
2018-08-17T08:28:08.201Z,6.07
2018-08-17T08:30:36.641Z,6.00
2018-08-17T08:33:05.164Z,5.83
2018-08-17T08:35:33.576Z,5.50
2018-08-17T08:38:02.006Z,5.40
2018-08-17T08:40:30.512Z,4.80
2018-08-17T08:42:58.933Z,5.77
2018-08-17T08:45:27.365Z,6.07
2018-08-17T08:47:55.800Z,6.40
2018-08-17T08:50:24.255Z,6.10
2018-08-17T08:52:52.718Z,6.40
2018-08-17T08:55:22.125Z,5.57
2018-08-17T08:57:50.856Z,5.80
2018-08-17T09:00:19.656Z,5.90
2018-08-17T09:02:48.201Z,5.57
2018-08-17T09:05:16.692Z,6.10
2018-08-17T09:07:45.101Z,5.13
2018-08-17T09:10:13.743Z,5.60
2018-08-17T09:12:42.232Z,5.27
2018-08-17T09:15:12.559Z,5.40
2018-08-17T09:17:42.624Z,4.90
2018-08-17T09:20:13.893Z,4.90
2018-08-17T09:22:43.145Z,6.80
2018-08-17T09:25:11.881Z,7.07
2018-08-17T09:27:40.356Z,8.70
2018-08-17T09:30:10.723Z,8.50
2018-08-17T09:32:39.580Z,9.63
2018-08-17T09:35:08.276Z,11.37
2018-08-17T09:37:36.752Z,14.10
2018-08-17T09:40:06.033Z,15.13
2018-08-17T09:42:35.107Z,13.20
2018-08-17T09:45:03.677Z,12.37
2018-08-17T09:47:32.186Z,12.40
2018-08-17T09:50:00.717Z,12.07
2018-08-17T09:52:29.215Z,11.90
2018-08-17T09:54:58.258Z,12.00
2018-08-17T09:57:26.769Z,13.47
2018-08-17T09:59:55.155Z,16.07
2018-08-17T10:02:29.725Z,16.33
2018-08-17T10:05:04.276Z,16.90
2018-08-17T10:07:37.944Z,16.63
2018-08-17T10:10:11.613Z,15.77
2018-08-17T10:12:40.114Z,14.60
2018-08-17T10:15:08.548Z,14.17
2018-08-17T10:17:37.013Z,12.63
2018-08-17T10:20:12.860Z,13.80
2018-08-17T10:22:42.516Z,14.00
2018-08-17T10:25:15.636Z,13.57
2018-08-17T10:27:45.193Z,14.27
2018-08-17T10:30:13.661Z,15.00
2018-08-17T10:32:47.322Z,14.27
2018-08-17T10:35:19.900Z,13.07
2018-08-17T10:37:48.397Z,14.30
2018-08-17T10:40:16.864Z,14.10
2018-08-17T10:42:45.651Z,15.13
2018-08-17T10:45:14.069Z,13.10
2018-08-17T10:47:42.516Z,13.67
2018-08-17T10:50:16.379Z,13.80
2018-08-17T10:52:44.777Z,14.93
2018-08-17T10:55:13.647Z,14.83
2018-08-17T10:57:42.221Z,15.77
2018-08-17T11:00:14.336Z,15.90
2018-08-17T11:02:43.444Z,13.43
2018-08-17T11:05:12.615Z,12.10
2018-08-17T11:07:41.080Z,13.30
2018-08-17T11:10:10.902Z,13.50
2018-08-17T11:12:41.030Z,14.60
2018-08-17T11:15:10.260Z,15.63
2018-08-17T11:17:38.733Z,15.03
2018-08-17T11:20:07.317Z,15.10
2018-08-17T11:22:36.283Z,16.80
2018-08-17T11:25:06.393Z,17.10
2018-08-17T11:27:36.148Z,16.70
2018-08-17T11:30:06.889Z,18.40
2018-08-17T11:32:35.377Z,15.60
2018-08-17T11:35:03.890Z,19.37
2018-08-17T11:37:32.640Z,18.00
2018-08-17T11:40:02.212Z,18.20
2018-08-17T11:42:36.795Z,16.20
2018-08-17T11:45:09.725Z,12.07
2018-08-17T11:47:38.781Z,11.57
2018-08-17T11:50:09.744Z,10.27
2018-08-17T11:52:44.495Z,14.53
2018-08-17T11:55:12.909Z,13.17
2018-08-17T11:57:41.829Z,13.10
2018-08-17T12:00:10.265Z,14.33
2018-08-17T12:02:38.681Z,12.70
2018-08-17T12:05:07.687Z,16.07
2018-08-17T12:07:36.260Z,19.47
2018-08-17T12:10:05.690Z,11.77
2018-08-17T12:12:35.343Z,11.40
2018-08-17T12:15:04.982Z,11.80
2018-08-17T12:17:33.919Z,11.97
2018-08-17T12:20:02.543Z,13.40
2018-08-17T12:25:13.676Z,9.50
2018-08-17T12:27:46.948Z,9.23
2018-08-17T12:30:15.407Z,8.47
2018-08-17T12:32:43.886Z,9.97
2018-08-17T12:35:12.308Z,10.00
2018-08-17T12:37:40.769Z,8.67
2018-08-17T12:40:09.248Z,8.77
2018-08-17T12:42:38.573Z,8.87
2018-08-17T12:45:12.398Z,8.57
2018-08-17T12:47:40.783Z,8.90
2018-08-17T12:50:09.227Z,9.93
2018-08-17T12:52:37.648Z,8.63
2018-08-17T12:55:06.165Z,9.27
2018-08-17T12:57:39.882Z,9.20
2018-08-17T13:00:08.347Z,9.13
2018-08-17T13:02:36.831Z,8.67
2018-08-17T13:05:05.394Z,7.80
2018-08-17T13:07:33.876Z,7.90
2018-08-17T13:10:02.320Z,7.93
2018-08-17T13:12:30.752Z,8.00
2018-08-17T13:14:59.196Z,7.83
2018-08-17T13:17:31.906Z,8.20
2018-08-17T13:20:00.765Z,6.63
2018-08-17T13:22:29.223Z,7.43
2018-08-17T13:24:57.612Z,7.43
2018-08-17T13:27:26.619Z,8.97
2018-08-17T13:29:55.334Z,7.73
2018-08-17T13:32:23.725Z,8.30
2018-08-17T13:34:52.350Z,6.43
2018-08-17T13:37:20.901Z,6.30
2018-08-17T13:39:49.371Z,6.20
2018-08-17T13:42:17.797Z,6.90
2018-08-17T13:44:46.256Z,6.90
2018-08-17T13:47:14.950Z,8.10
2018-08-17T13:49:43.503Z,8.03
2018-08-17T13:52:11.961Z,8.10
2018-08-17T13:54:40.362Z,8.37
2018-08-17T13:57:08.764Z,7.60
2018-08-17T13:59:37.222Z,7.03
2018-08-17T14:02:05.753Z,7.20
2018-08-17T14:04:34.925Z,6.30
2018-08-17T14:07:03.428Z,6.53
2018-08-17T14:09:32.403Z,6.03
2018-08-17T14:12:00.995Z,7.70
2018-08-17T14:14:29.445Z,11.60
2018-08-17T14:16:58.051Z,5.73
2018-08-17T14:19:26.513Z,5.00
2018-08-17T14:21:54.985Z,5.20
2018-08-17T14:24:23.510Z,4.37
2018-08-17T14:26:52.006Z,4.70
2018-08-17T14:29:20.619Z,4.63
2018-08-17T14:31:50.505Z,3.60
2018-08-17T14:34:18.964Z,4.60
2018-08-17T14:36:47.411Z,3.93
2018-08-17T14:39:15.879Z,5.17
2018-08-17T14:41:53.703Z,4.77
2018-08-17T14:44:22.900Z,5.80
2018-08-17T14:46:52.144Z,5.40
2018-08-17T14:49:20.724Z,5.03
2018-08-17T14:51:49.803Z,5.90
2018-08-17T14:54:18.299Z,5.83
2018-08-17T14:56:46.867Z,5.83
2018-08-17T14:59:15.693Z,5.73
2018-08-17T15:01:44.175Z,6.00
2018-08-17T15:04:12.612Z,6.70
2018-08-17T15:06:41.090Z,6.03
2018-08-17T15:09:11.757Z,5.77
2018-08-17T15:11:41.192Z,5.27
2018-08-17T15:14:11.257Z,6.00
2018-08-17T15:16:39.776Z,6.23
2018-08-17T15:19:08.320Z,6.43
2018-08-17T15:21:36.853Z,8.13
2018-08-17T15:24:05.322Z,8.83
2018-08-17T15:26:33.832Z,6.57
2018-08-17T15:29:02.269Z,5.90
2018-08-17T15:31:30.738Z,5.40
2018-08-17T15:33:59.194Z,5.00
2018-08-17T15:36:27.656Z,4.93
2018-08-17T15:38:56.119Z,5.70
2018-08-17T15:41:24.671Z,5.10
2018-08-17T15:43:54.003Z,4.50
2018-08-17T15:46:22.925Z,4.57
2018-08-17T15:48:52.981Z,4.53
2018-08-17T15:51:22.724Z,4.50
2018-08-17T15:53:51.371Z,4.33
2018-08-17T15:56:20.222Z,4.53
2018-08-17T15:58:48.901Z,3.80
2018-08-17T16:01:17.502Z,4.83
2018-08-17T16:03:45.923Z,5.10
2018-08-17T16:06:14.405Z,3.47
2018-08-17T16:08:42.834Z,3.30
2018-08-17T16:11:11.303Z,3.13
2018-08-17T16:13:40.800Z,3.27
2018-08-17T16:16:09.375Z,3.40
2018-08-17T16:18:38.590Z,3.07
2018-08-17T16:21:07.090Z,3.27
2018-08-17T16:23:35.571Z,3.00
2018-08-17T16:26:04.127Z,2.90
2018-08-17T16:28:32.756Z,3.57
2018-08-17T16:31:01.161Z,2.77
2018-08-17T16:33:29.697Z,2.80
2018-08-17T16:35:58.219Z,2.80
2018-08-17T16:38:26.665Z,3.23
2018-08-17T16:40:55.176Z,3.27
2018-08-17T16:43:28.991Z,2.93
2018-08-17T16:45:57.419Z,2.67
2018-08-17T16:48:26.522Z,2.40
2018-08-17T16:50:54.997Z,3.00
2018-08-17T16:53:22.384Z,2.87
2018-08-17T16:55:50.824Z,3.07
2018-08-17T16:58:20.129Z,2.30
2018-08-17T17:00:48.648Z,4.50
2018-08-17T17:03:17.108Z,2.77
2018-08-17T17:05:45.673Z,2.87
2018-08-17T17:08:14.097Z,2.43
2018-08-17T17:10:42.582Z,2.37
2018-08-17T17:13:11.017Z,2.43
2018-08-17T17:15:39.504Z,2.87
2018-08-17T17:18:09.167Z,11.87
2018-08-17T17:20:38.719Z,3.47
2018-08-17T17:23:09.437Z,3.20
2018-08-17T17:25:38.021Z,2.50
2018-08-17T17:28:07.034Z,2.87
2018-08-17T17:30:44.164Z,2.40
2018-08-17T17:33:12.700Z,2.53
2018-08-17T17:35:42.214Z,2.40
2018-08-17T17:38:11.449Z,2.43
2018-08-17T17:40:40.577Z,2.90
2018-08-17T17:43:09.219Z,3.73
2018-08-17T17:45:38.329Z,2.30
2018-08-17T17:48:07.759Z,10.60
2018-08-17T17:50:36.270Z,3.73
2018-08-17T17:53:04.834Z,3.70
2018-08-17T17:55:42.695Z,3.80
2018-08-17T17:58:11.393Z,2.90
2018-08-17T18:00:39.868Z,2.67
2018-08-17T18:03:08.781Z,2.80
2018-08-17T18:05:37.848Z,2.60
2018-08-17T18:08:11.712Z,3.07
2018-08-17T18:10:40.182Z,3.60
2018-08-17T18:13:08.688Z,2.50
2018-08-17T18:15:37.012Z,3.30
2018-08-17T18:18:05.514Z,3.40
2018-08-17T18:20:33.986Z,3.57
2018-08-17T18:23:02.418Z,2.87
2018-08-17T18:25:30.837Z,3.30
2018-08-17T18:27:59.342Z,2.77
2018-08-17T18:30:28.442Z,2.63
2018-08-17T18:32:57.494Z,2.70
2018-08-17T18:35:26.039Z,2.83
2018-08-17T18:37:54.473Z,3.70
2018-08-17T18:40:22.961Z,3.67
2018-08-17T18:42:51.344Z,3.10
2018-08-17T18:45:19.790Z,2.70
2018-08-17T18:47:48.250Z,2.63
2018-08-17T18:50:16.689Z,2.60
2018-08-17T18:52:46.808Z,2.40
2018-08-17T18:55:15.306Z,2.70
2018-08-17T18:57:43.722Z,2.70
2018-08-17T19:00:13.627Z,3.00
2018-08-17T19:02:42.990Z,3.43
2018-08-17T19:05:11.845Z,2.80
2018-08-17T19:07:40.354Z,3.00
2018-08-17T19:10:09.775Z,5.20
2018-08-17T19:12:38.156Z,3.50
2018-08-17T19:15:13.540Z,2.83
2018-08-17T19:17:42.473Z,2.60
2018-08-17T19:20:12.549Z,3.03
2018-08-17T19:22:43.097Z,2.87
2018-08-17T19:25:12.934Z,2.57
2018-08-17T19:27:41.948Z,3.70
2018-08-17T19:30:21.682Z,3.67
2018-08-17T19:32:50.399Z,4.80
2018-08-17T19:35:19.057Z,3.80
2018-08-17T19:37:47.843Z,3.03
2018-08-17T19:40:16.283Z,2.80
2018-08-17T19:42:44.774Z,2.87
2018-08-17T19:45:13.214Z,2.30
2018-08-17T19:47:41.792Z,2.80
2018-08-17T19:50:10.296Z,4.00
2018-08-17T19:52:38.669Z,2.70
2018-08-17T19:55:07.656Z,2.50
2018-08-17T19:57:36.034Z,2.50
2018-08-17T20:00:07.055Z,3.20
2018-08-17T20:02:35.457Z,4.30
2018-08-17T20:05:04.002Z,3.03
2018-08-17T20:07:32.495Z,3.00
2018-08-17T20:10:01.721Z,3.07
2018-08-17T20:12:30.800Z,4.10
2018-08-17T20:14:59.801Z,3.10
2018-08-17T20:17:28.276Z,3.47
2018-08-17T20:19:56.694Z,3.10
2018-08-17T20:22:25.194Z,2.70
2018-08-17T20:24:53.641Z,3.07
2018-08-17T20:27:22.104Z,2.97
2018-08-17T20:29:50.540Z,3.63
2018-08-17T20:32:19.711Z,3.60
2018-08-17T20:34:49.962Z,5.33
2018-08-17T20:37:18.764Z,5.00
2018-08-17T20:39:48.304Z,3.33
2018-08-17T20:42:16.724Z,4.30
2018-08-17T20:44:45.200Z,2.97
2018-08-17T20:47:13.724Z,3.70
2018-08-17T20:49:42.173Z,3.30
2018-08-17T20:52:11.134Z,4.07
2018-08-17T20:54:39.872Z,3.83
2018-08-17T20:57:08.264Z,2.90
2018-08-17T20:59:36.705Z,2.90
2018-08-17T21:02:05.162Z,2.90
2018-08-17T21:04:33.619Z,3.50
2018-08-17T21:07:02.086Z,4.43
2018-08-17T21:09:30.707Z,3.50
2018-08-17T21:11:59.157Z,3.80
2018-08-17T21:14:27.569Z,2.80
2018-08-17T21:16:55.946Z,2.70
2018-08-17T21:19:43.465Z,2.43
2018-08-17T21:22:12.072Z,2.17
2018-08-17T21:24:40.590Z,2.63
2018-08-17T21:27:09.625Z,2.60
2018-08-17T21:29:38.097Z,2.47
2018-08-17T21:32:06.471Z,2.37
2018-08-17T21:34:34.859Z,2.90
2018-08-17T21:37:03.448Z,2.50
2018-08-17T21:39:31.924Z,2.70
2018-08-17T21:42:00.367Z,2.53
2018-08-17T21:44:28.807Z,2.83
2018-08-17T21:47:03.441Z,2.80
2018-08-17T21:49:31.889Z,3.17
2018-08-17T21:52:02.854Z,3.33
2018-08-17T21:54:32.665Z,3.07
2018-08-17T21:57:01.982Z,3.80
2018-08-17T21:59:36.118Z,3.10
2018-08-17T22:02:06.336Z,3.57
2018-08-17T22:04:35.157Z,3.40
2018-08-17T22:07:08.825Z,2.70
2018-08-17T22:09:40.753Z,2.90
2018-08-17T22:12:10.177Z,2.77
2018-08-17T22:14:39.128Z,2.67
2018-08-17T22:17:11.993Z,3.10
2018-08-17T22:19:41.696Z,2.63
2018-08-17T22:22:11.775Z,3.63
2018-08-17T22:24:45.273Z,3.23
2018-08-17T22:27:16.229Z,3.47
2018-08-17T22:29:46.694Z,3.90
2018-08-17T22:32:15.120Z,4.47
2018-08-17T22:34:43.629Z,3.83
2018-08-17T22:37:12.497Z,3.27
2018-08-17T22:39:40.932Z,3.90
2018-08-17T22:42:09.644Z,3.47
2018-08-17T22:44:38.080Z,3.30
2018-08-17T22:47:12.318Z,4.23
2018-08-17T22:49:40.800Z,3.80
2018-08-17T22:52:09.260Z,4.10
2018-08-17T22:54:41.814Z,3.17
2018-08-17T22:57:10.653Z,3.47
2018-08-17T22:59:39.130Z,3.27
2018-08-17T23:02:07.760Z,3.87
2018-08-17T23:04:36.148Z,3.37
2018-08-17T23:07:04.653Z,3.93
2018-08-17T23:09:33.092Z,3.70
2018-08-17T23:12:01.497Z,3.20
2018-08-17T23:14:29.939Z,3.53
2018-08-17T23:16:58.367Z,3.63
2018-08-17T23:19:26.783Z,4.00
2018-08-17T23:21:55.202Z,3.70
2018-08-17T23:24:23.597Z,3.40
2018-08-17T23:26:52.085Z,3.40
2018-08-17T23:29:20.496Z,3.60
2018-08-17T23:31:48.923Z,3.87
2018-08-17T23:34:17.278Z,3.20
2018-08-17T23:36:45.723Z,3.60
2018-08-17T23:39:14.168Z,3.77
2018-08-17T23:41:43.401Z,3.90
2018-08-17T23:44:11.843Z,3.13
2018-08-17T23:46:40.256Z,3.20
2018-08-17T23:49:08.740Z,3.27
2018-08-17T23:51:37.186Z,3.83
2018-08-17T23:54:05.576Z,4.10
2018-08-17T23:56:33.965Z,4.10
2018-08-17T23:59:02.397Z,3.90
